createdAt,value
2023-04-03T00:01:32.379Z,7.75
2023-04-03T00:04:03.277Z,7.73
2023-04-03T00:06:32.100Z,7.72
2023-04-03T00:09:00.584Z,7.71
2023-04-03T00:11:29.029Z,7.69
2023-04-03T00:13:57.250Z,7.69
2023-04-03T00:16:25.199Z,7.68
2023-04-03T00:18:53.147Z,7.67
2023-04-03T00:21:21.146Z,7.67
2023-04-03T00:23:49.221Z,7.64
2023-04-03T00:26:17.251Z,7.63
2023-04-03T00:28:45.465Z,7.63
2023-04-03T00:31:17.295Z,7.58
2023-04-03T00:33:45.412Z,7.55
2023-04-03T00:36:14.141Z,7.53
2023-04-03T00:38:42.642Z,7.52
2023-04-03T00:41:10.776Z,7.51
2023-04-03T00:43:38.885Z,7.49
2023-04-03T00:46:06.984Z,7.47
2023-04-03T00:48:43.870Z,7.45
2023-04-03T00:51:23.409Z,7.45
2023-04-03T00:54:11.616Z,7.41
2023-04-03T00:56:59.177Z,7.40
2023-04-03T00:59:31.582Z,7.39
2023-04-03T01:02:00.898Z,7.39
2023-04-03T01:04:33.931Z,7.39
2023-04-03T01:07:07.260Z,7.40
2023-04-03T01:09:36.517Z,7.41
2023-04-03T01:12:25.244Z,7.39
2023-04-03T01:14:57.441Z,7.38
2023-04-03T01:17:45.390Z,7.38
2023-04-03T01:20:37.408Z,7.39
2023-04-03T01:23:25.250Z,7.38
2023-04-03T01:25:57.050Z,7.37
2023-04-03T01:28:33.030Z,7.32
2023-04-03T01:31:24.989Z,7.30
2023-04-03T01:33:53.858Z,7.30
2023-04-03T01:36:29.954Z,7.31
2023-04-03T01:39:00.362Z,7.31
2023-04-03T01:41:29.518Z,7.32
2023-04-03T01:43:59.210Z,7.32
2023-04-03T01:46:27.328Z,7.32
2023-04-03T01:48:55.256Z,7.31
2023-04-03T01:51:23.537Z,7.32
2023-04-03T01:53:52.154Z,7.31
2023-04-03T01:56:20.824Z,7.30
2023-04-03T01:58:49.079Z,7.30
2023-04-03T02:01:18.139Z,7.30
2023-04-03T02:03:46.015Z,7.30
2023-04-03T02:06:13.972Z,7.31
2023-04-03T02:08:42.729Z,7.32
2023-04-03T02:11:13.832Z,7.31
2023-04-03T02:13:41.950Z,7.33
2023-04-03T02:16:11.672Z,7.33
2023-04-03T02:18:40.613Z,7.34
2023-04-03T02:21:09.500Z,7.36
2023-04-03T02:23:37.565Z,7.36
2023-04-03T02:26:09.831Z,7.36
2023-04-03T02:28:37.963Z,7.35
2023-04-03T02:31:09.679Z,7.36
2023-04-03T02:33:41.378Z,7.35
2023-04-03T02:36:10.586Z,7.35
2023-04-03T02:38:39.671Z,7.33
2023-04-03T02:41:10.818Z,7.32
2023-04-03T02:43:39.749Z,7.30
2023-04-03T02:46:08.888Z,7.27
2023-04-03T02:48:38.236Z,7.27
2023-04-03T02:51:06.339Z,7.28
2023-04-03T02:53:34.245Z,7.29
2023-04-03T02:56:04.029Z,7.27
2023-04-03T02:58:31.994Z,7.27
2023-04-03T03:01:01.006Z,7.26
2023-04-03T03:03:29.233Z,7.22
2023-04-03T03:06:13.940Z,7.21
2023-04-03T03:08:42.968Z,7.18
2023-04-03T03:11:11.510Z,7.16
2023-04-03T03:13:39.948Z,7.15
2023-04-03T03:16:08.873Z,7.13
2023-04-03T03:18:37.581Z,7.12
2023-04-03T03:21:05.776Z,7.12
2023-04-03T03:23:34.344Z,7.10
2023-04-03T03:26:06.368Z,7.07
2023-04-03T03:28:36.851Z,7.06
2023-04-03T03:31:05.994Z,7.06
2023-04-03T03:33:34.438Z,7.05
2023-04-03T03:36:02.350Z,7.05
2023-04-03T03:38:30.585Z,7.07
2023-04-03T03:41:00.535Z,7.07
2023-04-03T03:43:28.639Z,7.07
2023-04-03T03:45:56.405Z,7.07
2023-04-03T03:48:24.874Z,7.06
2023-04-03T03:50:53.031Z,7.06
2023-04-03T03:53:22.783Z,7.06
2023-04-03T03:55:52.036Z,7.05
2023-04-03T03:58:21.402Z,7.06
2023-04-03T04:00:50.134Z,7.04
2023-04-03T04:03:18.892Z,7.04
2023-04-03T04:05:48.587Z,7.05
2023-04-03T04:08:16.928Z,7.05
2023-04-03T04:10:45.697Z,7.08
2023-04-03T04:13:14.979Z,7.09
2023-04-03T04:15:44.653Z,7.11
2023-04-03T04:18:12.662Z,7.13
2023-04-03T04:20:42.706Z,7.14
2023-04-03T04:23:11.026Z,7.14
2023-04-03T04:25:39.457Z,7.15
2023-04-03T04:28:07.357Z,7.13
2023-04-03T04:30:35.238Z,7.15
2023-04-03T04:33:04.438Z,7.14
2023-04-03T04:35:35.080Z,7.12
2023-04-03T04:38:03.732Z,7.11
2023-04-03T04:40:31.556Z,7.14
2023-04-03T04:43:00.312Z,7.15
2023-04-03T04:45:28.357Z,7.18
2023-04-03T04:47:57.621Z,7.23
2023-04-03T04:50:25.792Z,7.25
2023-04-03T04:52:54.375Z,7.27
2023-04-03T04:55:22.629Z,7.31
2023-04-03T04:57:51.351Z,7.35
2023-04-03T05:00:20.063Z,7.39
2023-04-03T05:02:48.250Z,7.44
2023-04-03T05:05:16.290Z,7.45
2023-04-03T05:07:44.251Z,7.48
2023-04-03T05:10:12.192Z,7.50
2023-04-03T05:12:41.302Z,7.49
2023-04-03T05:15:10.329Z,7.50
2023-04-03T05:17:38.907Z,7.53
2023-04-03T05:20:09.240Z,7.53
2023-04-03T05:22:38.324Z,7.56
2023-04-03T05:25:08.664Z,7.56
2023-04-03T05:27:36.840Z,7.57
2023-04-03T05:30:06.036Z,7.58
2023-04-03T05:32:34.138Z,7.57
2023-04-03T05:35:07.906Z,7.58
2023-04-03T05:37:37.007Z,7.59
2023-04-03T05:40:07.504Z,7.62
2023-04-03T05:42:36.242Z,7.67
2023-04-03T05:45:05.836Z,7.67
2023-04-03T05:47:33.752Z,7.69
2023-04-03T05:50:02.118Z,7.69
2023-04-03T05:52:37.147Z,7.70
2023-04-03T05:55:06.238Z,7.71
2023-04-03T05:57:35.514Z,7.72
2023-04-03T06:00:07.320Z,7.71
2023-04-03T06:02:37.191Z,7.64
2023-04-03T06:05:08.448Z,7.57
2023-04-03T06:07:36.978Z,7.47
2023-04-03T06:10:07.601Z,7.39
2023-04-03T06:12:35.708Z,7.36
2023-04-03T06:15:04.354Z,7.33
2023-04-03T06:17:32.512Z,7.32
2023-04-03T06:20:00.598Z,7.30
2023-04-03T06:22:30.456Z,7.28
2023-04-03T06:24:58.680Z,7.24
2023-04-03T06:27:26.627Z,7.21
2023-04-03T06:29:55.237Z,7.17
2023-04-03T06:32:23.101Z,7.12
2023-04-03T06:34:51.297Z,7.12
2023-04-03T06:37:22.901Z,7.12
2023-04-03T06:39:50.722Z,7.10
2023-04-03T06:42:19.027Z,7.11
2023-04-03T06:44:48.879Z,7.09
2023-04-03T06:47:17.780Z,7.12
2023-04-03T06:49:46.130Z,7.15
2023-04-03T06:52:13.910Z,7.17
2023-04-03T06:54:41.993Z,7.22
2023-04-03T06:57:09.912Z,7.23
2023-04-03T06:59:38.318Z,7.23
2023-04-03T07:02:07.097Z,7.25
2023-04-03T07:04:35.308Z,7.23
2023-04-03T07:07:03.326Z,7.22
2023-04-03T07:09:31.392Z,7.24
2023-04-03T07:11:59.565Z,7.29
2023-04-03T07:14:27.822Z,7.33
2023-04-03T07:16:55.727Z,7.39
2023-04-03T07:19:26.969Z,7.38
2023-04-03T07:22:04.302Z,7.39
2023-04-03T07:24:34.244Z,7.41
2023-04-03T07:27:02.990Z,7.42
2023-04-03T07:29:31.186Z,7.47
2023-04-03T07:32:01.068Z,7.50
2023-04-03T07:34:29.700Z,7.52
2023-04-03T07:36:58.381Z,7.56
2023-04-03T07:39:30.488Z,7.54
2023-04-03T07:44:53.155Z,7.64
2023-04-03T07:47:26.744Z,7.71
2023-04-03T07:50:02.268Z,7.76
2023-04-03T07:52:32.002Z,7.81
2023-04-03T07:55:01.308Z,7.89
2023-04-03T07:57:36.138Z,7.96
2023-04-03T08:04:37.184Z,8.02
2023-04-03T08:07:11.868Z,8.04
2023-04-03T08:09:46.925Z,8.07
2023-04-03T08:12:52.374Z,8.11
2023-04-03T08:15:23.704Z,8.16
2023-04-03T08:17:52.410Z,8.18
2023-04-03T08:20:20.820Z,8.21
2023-04-03T08:22:48.566Z,8.27
2023-04-03T08:25:17.985Z,8.33
2023-04-03T08:27:46.109Z,8.39
2023-04-03T08:30:14.759Z,8.47
2023-04-03T08:32:43.665Z,8.54
2023-04-03T08:35:12.252Z,8.64
2023-04-03T08:37:40.862Z,8.73
2023-04-03T08:40:16.643Z,8.81
2023-04-03T08:43:08.333Z,8.93
2023-04-03T08:45:56.808Z,9.05
2023-04-03T08:48:36.353Z,9.16
2023-04-03T08:51:17.972Z,9.28
2023-04-03T08:53:51.590Z,9.41
2023-04-03T08:56:19.980Z,9.48
2023-04-03T08:58:56.933Z,9.52
2023-04-03T09:01:33.100Z,9.55
2023-04-03T09:04:03.280Z,9.55
2023-04-03T09:06:33.960Z,9.57
2023-04-03T09:09:41.689Z,9.59
2023-04-03T09:12:30.591Z,9.61
2023-04-03T09:15:13.204Z,9.64
2023-04-03T09:18:18.552Z,9.61
2023-04-03T09:21:27.200Z,9.58
2023-04-03T09:24:02.355Z,9.57
2023-04-03T09:26:33.823Z,9.54
2023-04-03T09:29:10.611Z,9.51
2023-04-03T09:31:43.791Z,9.49
2023-04-03T09:34:26.763Z,9.52
2023-04-03T09:37:07.614Z,9.48
2023-04-03T09:39:56.449Z,9.51
2023-04-03T09:42:27.043Z,9.53
2023-04-03T09:45:12.716Z,9.62
2023-04-03T09:47:42.380Z,9.71
2023-04-03T09:50:20.216Z,9.77
2023-04-03T09:52:53.075Z,9.85
2023-04-03T09:55:26.172Z,9.96
2023-04-03T09:57:58.085Z,10.03
2023-04-03T10:00:39.107Z,10.08
2023-04-03T10:03:34.645Z,10.12
2023-04-03T10:06:04.476Z,10.19
2023-04-03T10:08:36.085Z,10.35
2023-04-03T10:11:14.742Z,10.46
2023-04-03T10:14:01.636Z,10.59
2023-04-03T10:16:39.917Z,10.72
2023-04-03T10:19:28.976Z,10.88
2023-04-03T10:22:15.075Z,11.05
2023-04-03T10:24:48.152Z,11.27
2023-04-03T10:27:27.397Z,11.46
2023-04-03T10:30:18.833Z,11.71
2023-04-03T10:33:20.383Z,11.96
2023-04-03T10:36:15.671Z,12.10
2023-04-03T10:39:13.425Z,12.20
2023-04-03T10:42:17.936Z,12.25
2023-04-03T10:44:54.561Z,12.23
2023-04-03T10:48:03.824Z,12.25
2023-04-03T10:51:03.635Z,12.11
2023-04-03T10:53:42.736Z,12.01
2023-04-03T10:56:33.522Z,11.96
2023-04-03T10:59:27.563Z,11.91
2023-04-03T11:02:03.683Z,11.90
2023-04-03T11:04:36.430Z,11.91
2023-04-03T11:07:23.828Z,11.89
2023-04-03T11:09:56.295Z,11.78
2023-04-03T11:12:50.202Z,11.77
2023-04-03T11:15:21.764Z,11.75
2023-04-03T11:18:00.189Z,11.69
2023-04-03T11:20:34.365Z,11.64
2023-04-03T11:23:30.251Z,11.52
2023-04-03T11:26:02.292Z,11.47
2023-04-03T11:28:30.986Z,11.42
2023-04-03T11:31:07.567Z,11.32
2023-04-03T11:34:06.898Z,11.32
2023-04-03T11:36:45.373Z,11.40
2023-04-03T11:39:36.345Z,11.44
2023-04-03T11:42:28.478Z,11.52
2023-04-03T11:45:28.005Z,11.70
2023-04-03T11:48:25.116Z,11.88
2023-04-03T11:50:51.706Z,12.07
2023-04-03T11:53:28.039Z,12.17
2023-04-03T11:56:02.669Z,12.26
2023-04-03T11:58:39.513Z,12.31
2023-04-03T12:01:12.625Z,12.33
2023-04-03T12:03:52.362Z,12.36
2023-04-03T12:06:34.936Z,12.37
2023-04-03T12:09:03.647Z,12.33
2023-04-03T12:11:33.196Z,12.39
2023-04-03T12:14:05.452Z,12.45
2023-04-03T12:16:44.544Z,12.38
2023-04-03T12:19:26.525Z,12.31
2023-04-03T12:22:01.193Z,12.21
2023-04-03T12:24:32.795Z,12.07
2023-04-03T12:27:12.158Z,11.98
2023-04-03T12:30:01.890Z,11.97
2023-04-03T12:33:11.932Z,11.93
2023-04-03T12:35:38.431Z,11.91
2023-04-03T12:38:25.830Z,11.78
2023-04-03T12:41:21.833Z,11.77
2023-04-03T12:44:19.254Z,11.87
2023-04-03T12:46:51.716Z,12.06
2023-04-03T12:49:31.864Z,12.07
2023-04-03T12:52:00.382Z,12.21
2023-04-03T12:54:38.309Z,12.39
2023-04-03T12:57:23.646Z,12.57
2023-04-03T12:59:52.077Z,12.64
2023-04-03T13:02:34.322Z,12.60
2023-04-03T13:05:13.761Z,12.62
2023-04-03T13:07:44.043Z,12.74
2023-04-03T13:10:16.527Z,12.83
2023-04-03T13:12:57.494Z,12.93
2023-04-03T13:15:33.419Z,13.07
2023-04-03T13:18:11.133Z,13.13
2023-04-03T13:20:42.491Z,13.09
2023-04-03T13:23:13.767Z,12.95
2023-04-03T13:25:45.034Z,12.88
2023-04-03T13:28:17.940Z,12.84
2023-04-03T13:31:03.442Z,12.86
2023-04-03T13:33:37.212Z,12.95
2023-04-03T13:36:13.303Z,13.03
2023-04-03T13:38:41.329Z,13.12
2023-04-03T13:41:39.915Z,13.17
2023-04-03T13:44:25.701Z,13.13
2023-04-03T13:47:01.957Z,13.03
2023-04-03T13:49:38.920Z,12.93
2023-04-03T13:52:36.288Z,12.80
2023-04-03T13:55:30.998Z,12.75
2023-04-03T13:58:04.027Z,12.65
2023-04-03T14:00:39.780Z,12.64
2023-04-03T14:03:34.484Z,12.68
2023-04-03T14:06:02.359Z,12.71
2023-04-03T14:08:42.145Z,12.69
2023-04-03T14:11:00.919Z,12.70
2023-04-03T14:13:32.484Z,12.74
2023-04-03T14:16:15.730Z,12.75
2023-04-03T14:18:32.346Z,12.77
2023-04-03T14:21:00.398Z,12.81
2023-04-03T14:23:28.116Z,12.85
2023-04-03T14:25:56.476Z,12.87
2023-04-03T14:28:24.393Z,12.84
2023-04-03T14:30:52.438Z,12.81
2023-04-03T14:33:25.959Z,12.81
2023-04-03T14:35:55.698Z,12.81
2023-04-03T14:38:31.126Z,12.78
2023-04-03T14:41:09.765Z,12.77
2023-04-03T14:43:29.500Z,12.76
2023-04-03T14:45:57.542Z,12.79
2023-04-03T14:48:27.999Z,12.84
2023-04-03T14:51:05.342Z,12.82
2023-04-03T14:53:37.812Z,12.82
2023-04-03T14:55:56.405Z,12.75
2023-04-03T14:58:24.150Z,12.68
2023-04-03T15:00:51.886Z,12.63
2023-04-03T15:03:23.906Z,12.61
2023-04-03T15:05:52.022Z,12.63
2023-04-03T15:08:26.922Z,12.55
2023-04-03T15:10:56.147Z,12.33
2023-04-03T15:13:26.330Z,12.22
2023-04-03T15:15:54.424Z,12.06
2023-04-03T15:18:30.481Z,11.89
2023-04-03T15:20:58.207Z,11.75
2023-04-03T15:23:27.026Z,11.63
2023-04-03T15:25:55.865Z,11.49
2023-04-03T15:28:39.153Z,11.36
2023-04-03T15:31:07.644Z,11.23
2023-04-03T15:33:36.390Z,11.15
2023-04-03T15:36:07.595Z,11.08
2023-04-03T15:38:39.140Z,11.03
2023-04-03T15:41:07.355Z,11.03
2023-04-03T15:43:37.042Z,11.04
2023-04-03T15:46:04.871Z,10.95
2023-04-03T15:48:34.845Z,10.81
2023-04-03T15:51:07.262Z,10.67
2023-04-03T15:57:11.238Z,10.45
2023-04-03T15:59:57.314Z,10.31
2023-04-03T16:02:27.714Z,10.16
2023-04-03T16:04:56.540Z,10.06
2023-04-03T16:07:24.405Z,9.99
2023-04-03T16:09:53.026Z,9.95
2023-04-03T16:12:20.960Z,9.88
2023-04-03T16:14:50.774Z,9.74
2023-04-03T16:17:18.989Z,9.60
2023-04-03T16:19:47.335Z,9.52
2023-04-03T16:22:15.435Z,9.45
2023-04-03T16:24:43.148Z,9.36
2023-04-03T16:27:10.925Z,9.26
2023-04-03T16:29:38.668Z,9.20
2023-04-03T16:32:06.533Z,9.13
2023-04-03T16:34:34.680Z,9.06
2023-04-03T16:37:02.810Z,9.02
2023-04-03T16:39:30.693Z,8.99
2023-04-03T16:41:58.828Z,8.95
2023-04-03T16:44:26.869Z,8.92
2023-04-03T16:46:55.050Z,8.89
2023-04-03T16:49:22.919Z,8.82
2023-04-03T16:51:50.695Z,8.75
2023-04-03T16:54:18.600Z,8.68
2023-04-03T16:56:47.030Z,8.60
2023-04-03T16:59:15.152Z,8.54
2023-04-03T17:01:43.056Z,8.50
2023-04-03T17:04:10.897Z,8.43
2023-04-03T17:06:38.958Z,8.40
2023-04-03T17:09:07.954Z,8.36
2023-04-03T17:11:38.766Z,8.33
2023-04-03T17:14:06.754Z,8.31
2023-04-03T17:16:37.238Z,8.27
2023-04-03T17:19:05.543Z,8.26
2023-04-03T17:21:34.541Z,8.21
2023-04-03T17:24:08.292Z,8.18
2023-04-03T17:26:37.091Z,8.12
2023-04-03T17:29:05.204Z,8.10
2023-04-03T17:31:35.830Z,8.09
2023-04-03T17:34:04.519Z,8.08
2023-04-03T17:36:35.114Z,8.05
2023-04-03T17:39:03.602Z,8.00
2023-04-03T17:41:32.048Z,7.99
2023-04-03T17:44:00.278Z,7.96
2023-04-03T17:46:29.686Z,7.92
2023-04-03T17:49:00.005Z,7.87
2023-04-03T17:51:28.370Z,7.83
2023-04-03T17:53:56.424Z,7.78
2023-04-03T17:56:29.220Z,7.73
2023-04-03T17:58:58.173Z,7.68
2023-04-03T18:01:34.160Z,7.61
2023-04-03T18:04:05.310Z,7.56
2023-04-03T18:06:43.868Z,7.53
2023-04-03T18:09:19.564Z,7.47
2023-04-03T18:11:49.269Z,7.41
2023-04-03T18:14:21.480Z,7.41
2023-04-03T18:16:49.939Z,7.41
2023-04-03T18:19:23.530Z,7.41
2023-04-03T18:21:48.346Z,7.41
2023-04-03T18:24:19.151Z,7.40
2023-04-03T18:26:52.041Z,7.39
2023-04-03T18:29:21.143Z,7.38
2023-04-03T18:31:55.956Z,7.35
2023-04-03T18:34:24.821Z,7.37
2023-04-03T18:36:53.644Z,7.36
2023-04-03T18:39:23.360Z,7.36
2023-04-03T18:41:54.073Z,7.36
2023-04-03T18:44:25.463Z,7.32
2023-04-03T18:46:56.119Z,7.30
2023-04-03T18:49:24.284Z,7.27
2023-04-03T18:51:54.364Z,7.25
2023-04-03T18:54:22.687Z,7.21
2023-04-03T18:56:50.778Z,7.20
2023-04-03T18:59:25.483Z,7.16
2023-04-03T19:01:55.307Z,7.14
2023-04-03T19:04:23.892Z,7.11
2023-04-03T19:06:52.859Z,7.10
2023-04-03T19:09:21.374Z,7.09
2023-04-03T19:11:49.176Z,7.08
2023-04-03T19:14:17.314Z,7.06
2023-04-03T19:16:45.900Z,7.07
2023-04-03T19:19:15.963Z,7.07
2023-04-03T19:21:44.074Z,7.09
2023-04-03T19:24:14.061Z,7.11
2023-04-03T19:26:42.703Z,7.14
2023-04-03T19:29:11.251Z,7.16
2023-04-03T19:31:39.649Z,7.20
2023-04-03T19:34:07.973Z,7.22
2023-04-03T19:36:38.940Z,7.25
2023-04-03T19:39:07.192Z,7.27
2023-04-03T19:41:37.127Z,7.29
2023-04-03T19:44:07.020Z,7.33
2023-04-03T19:46:36.348Z,7.33
2023-04-03T19:49:04.613Z,7.37
2023-04-03T19:51:32.626Z,7.40
2023-04-03T19:54:00.410Z,7.41
2023-04-03T19:56:28.262Z,7.41
2023-04-03T19:58:56.404Z,7.42
2023-04-03T20:01:27.212Z,7.42
2023-04-03T20:03:56.025Z,7.43
2023-04-03T20:06:24.097Z,7.42
2023-04-03T20:08:53.136Z,7.41
2023-04-03T20:11:23.358Z,7.43
2023-04-03T20:13:52.558Z,7.45
2023-04-03T20:16:23.689Z,7.47
2023-04-03T20:18:55.938Z,7.48
2023-04-03T20:21:29.660Z,7.49
2023-04-03T20:23:58.655Z,7.50
2023-04-03T20:26:29.345Z,7.51
2023-04-03T20:28:59.974Z,7.52
2023-04-03T20:31:32.270Z,7.51
2023-04-03T20:34:01.147Z,7.50
2023-04-03T20:36:30.373Z,7.51
2023-04-03T20:38:58.294Z,7.52
2023-04-03T20:41:26.464Z,7.53
2023-04-03T20:43:54.325Z,7.54
2023-04-03T20:46:24.441Z,7.52
2023-04-03T20:48:53.548Z,7.53
2023-04-03T20:51:21.319Z,7.52
2023-04-03T20:53:49.470Z,7.49
2023-04-03T20:56:17.264Z,7.46
2023-04-03T20:58:45.763Z,7.44
2023-04-03T21:01:23.292Z,7.41
2023-04-03T21:04:01.972Z,7.37
2023-04-03T21:07:27.555Z,7.34
2023-04-03T21:10:51.698Z,7.28
2023-04-03T21:14:17.433Z,7.24
2023-04-03T21:16:46.425Z,7.21
2023-04-03T21:19:15.427Z,7.18
2023-04-03T21:21:45.462Z,7.15
2023-04-03T21:24:16.622Z,7.15
2023-04-03T21:26:44.650Z,7.12
2023-04-03T21:29:13.610Z,7.08
2023-04-03T21:31:59.599Z,7.02
2023-04-03T21:34:31.957Z,6.98
2023-04-03T21:37:08.950Z,6.92
2023-04-03T21:39:36.790Z,6.92
2023-04-03T21:42:04.634Z,6.91
2023-04-03T21:44:32.359Z,6.91
2023-04-03T21:47:00.685Z,6.91
2023-04-03T21:49:29.119Z,6.90
2023-04-03T21:51:56.913Z,6.89
2023-04-03T21:54:25.196Z,6.86
2023-04-03T21:56:53.045Z,6.87
2023-04-03T21:59:20.955Z,6.85
2023-04-03T22:01:48.814Z,6.85
2023-04-03T22:04:16.680Z,6.80
2023-04-03T22:06:45.214Z,6.78
2023-04-03T22:09:12.998Z,6.73
2023-04-03T22:11:42.529Z,6.72
2023-04-03T22:14:10.626Z,6.71
2023-04-03T22:16:39.927Z,6.68
2023-04-03T22:19:07.707Z,6.67
2023-04-03T22:21:35.973Z,6.66
2023-04-03T22:24:03.836Z,6.64
2023-04-03T22:26:31.583Z,6.62
2023-04-03T22:28:58.938Z,6.61
2023-04-03T22:31:27.671Z,6.61
2023-04-03T22:33:55.561Z,6.57
2023-04-03T22:36:23.178Z,6.52
2023-04-03T22:38:51.182Z,6.48
2023-04-03T22:41:18.768Z,6.44
2023-04-03T22:43:46.677Z,6.43
2023-04-03T22:46:14.629Z,6.37
2023-04-03T22:48:42.930Z,6.32
2023-04-03T22:51:11.767Z,6.25
2023-04-03T22:53:39.692Z,6.24
2023-04-03T22:56:08.440Z,6.23
2023-04-03T22:58:37.025Z,6.20
2023-04-03T23:01:13.448Z,6.17
2023-04-03T23:03:42.201Z,6.16
2023-04-03T23:06:10.629Z,6.12
2023-04-03T23:08:40.085Z,6.06
2023-04-03T23:11:08.831Z,6.02
2023-04-03T23:13:36.825Z,6.01
2023-04-03T23:16:05.206Z,5.95
2023-04-03T23:18:33.101Z,5.86
2023-04-03T23:21:02.981Z,5.81
2023-04-03T23:23:31.408Z,5.74
2023-04-03T23:26:01.704Z,5.66
2023-04-03T23:28:30.806Z,5.57
2023-04-03T23:31:02.399Z,5.51
2023-04-03T23:33:33.595Z,5.45
2023-04-03T23:36:08.003Z,5.38
2023-04-03T23:38:36.391Z,5.35
2023-04-03T23:41:04.097Z,5.32
2023-04-03T23:43:31.974Z,5.30
2023-04-03T23:45:59.769Z,5.30
2023-04-03T23:48:27.383Z,5.26
2023-04-03T23:50:55.094Z,5.27
2023-04-03T23:53:22.673Z,5.25
2023-04-03T23:55:50.467Z,5.22
2023-04-03T23:58:18.169Z,5.21
